createdAt,value
2022-10-06T00:01:41.283Z,96.65
2022-10-06T00:03:44.591Z,97.36
2022-10-06T00:05:47.508Z,97.21
2022-10-06T00:07:50.507Z,97.74
2022-10-06T00:09:53.395Z,96.23
2022-10-06T00:11:56.333Z,97.38
2022-10-06T00:13:59.306Z,97.44
2022-10-06T00:16:03.092Z,97.64
2022-10-06T00:18:07.429Z,97.55
2022-10-06T00:20:10.876Z,97.53
2022-10-06T00:22:13.882Z,97.55
2022-10-06T00:24:16.880Z,97.21
2022-10-06T00:26:20.002Z,97.16
2022-10-06T00:28:23.121Z,97.63
2022-10-06T00:30:27.816Z,97.61
2022-10-06T00:32:30.824Z,97.78
2022-10-06T00:34:36.515Z,96.92
2022-10-06T00:36:39.929Z,97.75
2022-10-06T00:38:42.828Z,97.05
2022-10-06T00:40:50.090Z,96.74
2022-10-06T00:42:55.263Z,97.67
2022-10-06T00:44:59.952Z,96.48
2022-10-06T00:47:03.163Z,97.16
2022-10-06T00:49:11.906Z,96.62
2022-10-06T00:51:16.357Z,96.72
2022-10-06T00:53:19.537Z,97.46
2022-10-06T00:55:23.377Z,97.73
2022-10-06T00:57:27.282Z,97.27
2022-10-06T00:59:30.302Z,96.88
2022-10-06T01:01:33.532Z,97.22
2022-10-06T01:03:39.053Z,97.97
2022-10-06T01:05:46.588Z,97.09
2022-10-06T01:07:50.908Z,97.72
2022-10-06T01:09:53.929Z,97.86
2022-10-06T01:11:59.277Z,97.62
2022-10-06T01:14:02.194Z,97.77
2022-10-06T01:16:11.858Z,97.01
2022-10-06T01:18:17.679Z,97.32
2022-10-06T01:20:21.853Z,97.54
2022-10-06T01:22:28.528Z,97.29
2022-10-06T01:24:31.530Z,97.59
2022-10-06T01:26:36.946Z,97.31
2022-10-06T01:28:40.404Z,97.77
2022-10-06T01:30:50.815Z,96.59
2022-10-06T01:32:54.566Z,97.48
2022-10-06T01:34:57.956Z,97.00
2022-10-06T01:37:01.007Z,97.43
2022-10-06T01:39:05.640Z,97.88
2022-10-06T01:41:08.607Z,97.47
2022-10-06T01:43:11.847Z,97.49
2022-10-06T01:45:14.906Z,97.70
2022-10-06T01:47:17.825Z,96.70
2022-10-06T01:49:20.687Z,97.43
2022-10-06T01:51:24.077Z,95.96
2022-10-06T01:53:27.003Z,97.55
2022-10-06T01:55:31.276Z,97.55
2022-10-06T01:57:39.666Z,97.03
2022-10-06T01:59:43.169Z,96.23
2022-10-06T02:01:46.208Z,97.15
2022-10-06T02:03:49.877Z,96.61
2022-10-06T02:05:52.783Z,96.27
2022-10-06T02:07:55.777Z,97.78
2022-10-06T02:09:58.773Z,96.62
2022-10-06T02:12:04.339Z,96.48
2022-10-06T02:14:07.332Z,95.78
2022-10-06T02:16:11.824Z,96.71
2022-10-06T02:18:14.896Z,97.28
2022-10-06T02:20:18.028Z,96.31
2022-10-06T02:22:20.953Z,97.53
2022-10-06T02:24:25.376Z,98.31
2022-10-06T02:26:28.455Z,98.31
2022-10-06T02:28:33.823Z,97.96
2022-10-06T02:30:39.052Z,97.48
2022-10-06T02:32:44.092Z,97.06
2022-10-06T02:34:47.512Z,98.25
2022-10-06T02:36:50.468Z,97.82
2022-10-06T02:38:54.497Z,96.52
2022-10-06T02:40:58.076Z,96.11
2022-10-06T02:43:01.063Z,98.06
2022-10-06T02:45:07.221Z,97.53
2022-10-06T02:47:13.989Z,96.35
2022-10-06T02:49:16.987Z,96.31
2022-10-06T02:51:21.559Z,96.77
2022-10-06T02:53:25.910Z,97.31
2022-10-06T02:55:30.926Z,96.33
2022-10-06T02:57:33.888Z,96.80
2022-10-06T02:59:37.514Z,95.51
2022-10-06T03:01:42.770Z,97.00
2022-10-06T03:03:50.975Z,98.30
2022-10-06T03:06:00.570Z,98.03
2022-10-06T03:08:03.595Z,98.70
2022-10-06T03:10:07.526Z,97.63
2022-10-06T03:12:10.619Z,98.02
2022-10-06T03:14:21.377Z,99.66
2022-10-06T03:16:26.957Z,100.00
2022-10-06T03:18:31.907Z,98.61
2022-10-06T03:20:35.377Z,99.32
2022-10-06T03:22:39.207Z,99.80
2022-10-06T03:24:42.126Z,99.72
2022-10-06T03:26:47.004Z,99.75
2022-10-06T03:28:51.506Z,100.00
2022-10-06T03:30:54.901Z,100.00
2022-10-06T03:33:01.780Z,100.00
2022-10-06T03:35:07.250Z,99.81
2022-10-06T03:37:10.653Z,100.00
2022-10-06T03:39:13.675Z,99.82
2022-10-06T03:41:19.160Z,99.46
2022-10-06T03:43:22.246Z,99.26
2022-10-06T03:45:25.480Z,100.00
2022-10-06T03:47:30.835Z,99.78
2022-10-06T03:49:34.276Z,100.00
2022-10-06T03:51:39.964Z,99.64
2022-10-06T03:53:48.241Z,100.00
2022-10-06T03:55:53.039Z,100.00
2022-10-06T03:57:57.271Z,99.96
2022-10-06T04:00:00.579Z,99.88
2022-10-06T04:02:05.313Z,100.00
2022-10-06T04:04:12.780Z,100.00
2022-10-06T04:06:18.724Z,100.00
2022-10-06T04:08:23.267Z,99.77
2022-10-06T04:10:27.098Z,100.00
2022-10-06T04:12:30.326Z,100.00
2022-10-06T04:14:33.270Z,100.00
2022-10-06T04:16:37.672Z,100.00
2022-10-06T04:18:41.766Z,100.00
2022-10-06T04:20:44.733Z,100.00
2022-10-06T04:22:47.824Z,99.37
2022-10-06T04:24:52.128Z,99.39
2022-10-06T04:27:15.062Z,99.52
2022-10-06T04:29:19.545Z,99.37
2022-10-06T04:31:32.751Z,99.44
2022-10-06T04:33:36.034Z,100.00
2022-10-06T04:35:39.077Z,100.00
2022-10-06T04:37:42.488Z,100.00
2022-10-06T04:39:45.460Z,100.00
2022-10-06T04:41:50.179Z,100.00
2022-10-06T04:43:58.035Z,100.00
2022-10-06T04:46:18.106Z,100.00
2022-10-06T04:48:27.571Z,100.00
2022-10-06T04:50:30.876Z,100.00
2022-10-06T04:52:41.841Z,100.00
2022-10-06T04:54:45.199Z,100.00
2022-10-06T04:56:49.843Z,100.00
2022-10-06T04:58:55.801Z,100.00
2022-10-06T05:00:58.410Z,100.00
2022-10-06T05:03:01.425Z,100.00
2022-10-06T05:05:05.804Z,100.00
2022-10-06T05:07:08.827Z,100.00
2022-10-06T05:09:15.970Z,100.00
2022-10-06T05:11:30.315Z,100.00
2022-10-06T05:13:37.073Z,100.00
2022-10-06T05:15:40.663Z,100.00
2022-10-06T05:17:43.816Z,100.00
2022-10-06T05:19:46.998Z,100.00
2022-10-06T05:21:49.961Z,100.00
2022-10-06T05:23:57.422Z,100.00
2022-10-06T05:26:01.564Z,100.00
2022-10-06T05:28:05.037Z,100.00
2022-10-06T05:30:11.086Z,100.00
2022-10-06T05:32:14.230Z,100.00
2022-10-06T05:34:17.972Z,100.00
2022-10-06T05:36:24.233Z,100.00
2022-10-06T05:38:29.767Z,100.00
2022-10-06T05:40:32.995Z,100.00
2022-10-06T05:42:35.982Z,100.00
2022-10-06T05:44:38.956Z,100.00
2022-10-06T05:46:47.064Z,100.00
2022-10-06T05:48:51.714Z,100.00
2022-10-06T05:51:01.386Z,100.00
2022-10-06T05:53:04.595Z,100.00
2022-10-06T05:55:08.772Z,100.00
2022-10-06T05:57:12.502Z,100.00
2022-10-06T05:59:15.582Z,100.00
2022-10-06T06:01:20.340Z,100.00
2022-10-06T06:03:25.864Z,100.00
2022-10-06T06:05:29.000Z,100.00
2022-10-06T06:07:32.194Z,100.00
2022-10-06T06:09:35.426Z,100.00
2022-10-06T06:11:41.128Z,100.00
2022-10-06T06:13:44.125Z,100.00
2022-10-06T06:16:01.213Z,100.00
2022-10-06T06:18:06.119Z,100.00
2022-10-06T06:20:11.124Z,100.00
2022-10-06T06:22:14.463Z,100.00
2022-10-06T06:24:19.638Z,100.00
2022-10-06T06:26:24.434Z,100.00
2022-10-06T06:28:29.240Z,100.00
2022-10-06T06:30:32.562Z,100.00
2022-10-06T06:32:35.966Z,100.00
2022-10-06T06:34:39.429Z,100.00
2022-10-06T06:36:47.490Z,100.00
2022-10-06T06:38:54.668Z,100.00
2022-10-06T06:40:58.430Z,100.00
2022-10-06T06:43:01.691Z,100.00
2022-10-06T06:45:16.519Z,100.00
2022-10-06T06:47:31.972Z,100.00
2022-10-06T06:49:36.160Z,100.00
2022-10-06T06:51:49.472Z,100.00
2022-10-06T06:53:54.604Z,100.00
2022-10-06T06:55:58.040Z,100.00
2022-10-06T06:58:01.109Z,100.00
2022-10-06T07:00:08.074Z,100.00
2022-10-06T07:02:12.841Z,100.00
2022-10-06T07:04:19.650Z,100.00
2022-10-06T07:06:27.748Z,100.00
2022-10-06T07:08:33.286Z,100.00
2022-10-06T07:10:37.221Z,100.00
2022-10-06T07:12:40.738Z,100.00
2022-10-06T07:15:04.154Z,100.00
2022-10-06T07:17:29.393Z,100.00
2022-10-06T07:19:52.315Z,100.00
2022-10-06T07:22:14.825Z,100.00
2022-10-06T07:24:37.120Z,100.00
2022-10-06T07:26:40.221Z,100.00
2022-10-06T07:28:43.238Z,100.00
2022-10-06T07:30:48.159Z,100.00
2022-10-06T07:32:55.774Z,100.00
2022-10-06T07:35:00.813Z,100.00
2022-10-06T07:37:06.424Z,100.00
2022-10-06T07:39:10.517Z,100.00
2022-10-06T07:41:20.292Z,100.00
2022-10-06T07:43:30.593Z,100.00
2022-10-06T07:45:42.121Z,100.00
2022-10-06T07:47:59.006Z,100.00
2022-10-06T07:50:02.056Z,100.00
2022-10-06T07:52:05.911Z,100.00
2022-10-06T07:54:09.038Z,100.00
2022-10-06T07:56:48.490Z,100.00
2022-10-06T07:58:51.600Z,100.00
2022-10-06T08:00:54.582Z,100.00
2022-10-06T08:02:57.624Z,100.00
2022-10-06T08:05:00.668Z,100.00
2022-10-06T08:07:04.411Z,100.00
2022-10-06T08:09:07.465Z,100.00
2022-10-06T08:11:10.981Z,100.00
2022-10-06T08:13:15.651Z,100.00
2022-10-06T08:15:18.633Z,100.00
2022-10-06T08:17:21.625Z,100.00
2022-10-06T08:19:25.346Z,100.00
2022-10-06T08:21:29.946Z,100.00
2022-10-06T08:23:32.961Z,100.00
2022-10-06T08:25:42.615Z,100.00
2022-10-06T08:27:48.964Z,100.00
2022-10-06T08:29:56.069Z,100.00
2022-10-06T08:31:59.423Z,100.00
2022-10-06T08:34:02.553Z,100.00
2022-10-06T08:36:08.541Z,100.00
2022-10-06T08:38:12.403Z,100.00
2022-10-06T08:40:16.192Z,100.00
2022-10-06T08:42:24.856Z,100.00
2022-10-06T08:44:31.562Z,100.00
2022-10-06T08:46:38.834Z,100.00
2022-10-06T08:48:41.886Z,100.00
2022-10-06T08:50:53.424Z,100.00
2022-10-06T08:53:04.200Z,100.00
2022-10-06T08:55:15.741Z,100.00
2022-10-06T08:57:20.943Z,100.00
2022-10-06T08:59:23.992Z,100.00
2022-10-06T09:01:28.665Z,100.00
2022-10-06T09:03:33.123Z,99.84
2022-10-06T09:05:37.148Z,97.11
2022-10-06T09:07:45.889Z,98.08
2022-10-06T09:09:59.939Z,97.58
2022-10-06T09:12:07.757Z,97.03
2022-10-06T09:14:15.107Z,96.09
2022-10-06T09:16:19.416Z,95.68
2022-10-06T09:18:29.138Z,95.18
2022-10-06T09:20:42.619Z,94.32
2022-10-06T09:22:45.846Z,94.15
2022-10-06T09:24:50.680Z,93.60
2022-10-06T09:26:54.429Z,92.87
2022-10-06T09:28:57.850Z,91.37
2022-10-06T09:31:02.632Z,90.12
2022-10-06T09:33:07.216Z,89.14
2022-10-06T09:35:18.208Z,88.35
2022-10-06T09:37:23.231Z,86.00
2022-10-06T09:39:29.124Z,86.71
2022-10-06T09:41:38.557Z,85.08
2022-10-06T09:43:42.678Z,86.01
2022-10-06T09:45:45.715Z,86.68
2022-10-06T09:47:48.712Z,85.60
2022-10-06T09:50:04.409Z,85.30
2022-10-06T09:52:12.809Z,83.47
2022-10-06T09:54:18.161Z,81.73
2022-10-06T09:56:21.973Z,83.63
2022-10-06T09:58:32.633Z,84.29
2022-10-06T10:00:47.698Z,83.26
2022-10-06T10:02:57.671Z,82.94
2022-10-06T10:05:02.364Z,83.14
2022-10-06T10:07:15.324Z,83.41
2022-10-06T10:09:37.593Z,85.03
2022-10-06T10:11:58.438Z,84.88
2022-10-06T10:14:01.437Z,82.70
2022-10-06T10:16:04.643Z,82.60
2022-10-06T10:18:13.894Z,79.05
2022-10-06T10:20:29.373Z,80.35
2022-10-06T10:22:36.339Z,78.50
2022-10-06T10:24:52.653Z,79.17
2022-10-06T10:26:57.859Z,77.63
2022-10-06T10:29:35.294Z,76.82
2022-10-06T10:31:48.145Z,77.33
2022-10-06T10:34:11.859Z,76.04
2022-10-06T10:36:17.755Z,77.70
2022-10-06T10:38:21.667Z,77.24
2022-10-06T10:40:37.421Z,77.37
2022-10-06T10:42:45.795Z,77.58
2022-10-06T10:44:52.187Z,78.82
2022-10-06T10:46:58.299Z,75.17
2022-10-06T10:49:05.256Z,76.86
2022-10-06T10:51:12.063Z,76.45
2022-10-06T10:53:19.425Z,77.10
2022-10-06T10:55:28.045Z,77.65
2022-10-06T10:57:36.986Z,77.25
2022-10-06T10:59:46.238Z,78.55
2022-10-06T11:01:53.679Z,77.54
2022-10-06T11:04:00.860Z,79.03
2022-10-06T11:06:23.761Z,76.87
2022-10-06T11:08:31.309Z,77.80
2022-10-06T11:10:37.752Z,78.33
2022-10-06T11:12:54.274Z,79.05
2022-10-06T11:14:59.551Z,78.33
2022-10-06T11:17:07.065Z,77.55
2022-10-06T11:19:16.822Z,76.24
2022-10-06T11:21:23.046Z,77.16
2022-10-06T11:23:36.598Z,76.02
2022-10-06T11:25:45.339Z,77.24
2022-10-06T11:27:58.245Z,76.13
2022-10-06T11:30:05.961Z,77.02
2022-10-06T11:32:22.242Z,77.81
2022-10-06T11:34:25.244Z,79.38
2022-10-06T11:36:36.026Z,77.18
2022-10-06T11:38:41.774Z,77.60
2022-10-06T11:41:05.105Z,79.60
2022-10-06T11:43:20.641Z,77.64
2022-10-06T11:45:27.895Z,77.44
2022-10-06T11:47:35.596Z,79.02
2022-10-06T11:49:57.189Z,79.60
2022-10-06T11:52:37.149Z,78.26
2022-10-06T11:54:48.270Z,79.97
2022-10-06T11:56:51.206Z,77.98
2022-10-06T11:59:31.261Z,77.51
2022-10-06T12:02:03.066Z,79.61
2022-10-06T12:04:24.288Z,79.19
2022-10-06T12:06:58.654Z,78.60
2022-10-06T12:09:01.929Z,79.06
2022-10-06T12:11:25.336Z,78.25
2022-10-06T12:14:49.489Z,76.59
2022-10-06T12:18:57.178Z,77.13
2022-10-06T12:21:08.200Z,75.62
2022-10-06T12:23:17.879Z,76.91
2022-10-06T12:25:26.744Z,76.83
2022-10-06T12:27:36.570Z,77.10
2022-10-06T12:29:45.999Z,75.63
2022-10-06T12:31:59.421Z,75.17
2022-10-06T12:34:02.483Z,73.66
2022-10-06T12:36:07.196Z,73.64
2022-10-06T12:38:43.080Z,75.57
2022-10-06T12:40:52.299Z,75.02
2022-10-06T12:43:11.472Z,75.49
2022-10-06T12:45:17.242Z,75.50
2022-10-06T12:47:24.130Z,74.86
2022-10-06T12:49:40.943Z,76.18
2022-10-06T12:51:45.893Z,76.15
2022-10-06T12:53:54.548Z,76.12
2022-10-06T12:56:02.011Z,75.20
2022-10-06T12:58:05.072Z,74.51
2022-10-06T13:00:23.513Z,74.18
2022-10-06T13:02:28.859Z,72.96
2022-10-06T13:04:37.582Z,72.52
2022-10-06T13:06:40.565Z,74.14
2022-10-06T13:08:43.712Z,73.30
2022-10-06T13:10:46.779Z,75.37
2022-10-06T13:12:52.051Z,76.26
2022-10-06T13:15:18.365Z,75.59
2022-10-06T13:17:21.397Z,74.25
2022-10-06T13:19:28.847Z,73.20
2022-10-06T13:21:32.050Z,74.71
2022-10-06T13:23:36.129Z,74.31
2022-10-06T13:25:43.441Z,73.55
2022-10-06T13:27:50.397Z,74.76
2022-10-06T13:30:12.841Z,74.90
2022-10-06T13:32:19.045Z,74.29
2022-10-06T13:34:28.490Z,73.40
2022-10-06T13:36:33.205Z,72.62
2022-10-06T13:38:36.873Z,73.23
2022-10-06T13:40:44.695Z,72.29
2022-10-06T13:42:48.680Z,73.27
2022-10-06T13:44:56.734Z,73.12
2022-10-06T13:47:01.881Z,74.70
2022-10-06T13:49:12.691Z,75.79
2022-10-06T13:51:19.165Z,73.66
2022-10-06T13:53:25.539Z,75.29
2022-10-06T13:55:29.638Z,73.39
2022-10-06T13:57:34.949Z,74.80
2022-10-06T13:59:39.307Z,76.95
2022-10-06T14:01:42.564Z,76.68
2022-10-06T14:03:45.606Z,75.68
2022-10-06T14:05:48.681Z,75.57
2022-10-06T14:07:53.776Z,75.04
2022-10-06T14:09:56.797Z,75.34
2022-10-06T14:12:04.569Z,73.77
2022-10-06T14:14:08.368Z,72.86
2022-10-06T14:16:19.982Z,75.27
2022-10-06T14:18:25.239Z,75.61
2022-10-06T14:20:48.783Z,75.07
2022-10-06T14:22:53.504Z,74.67
2022-10-06T14:24:56.464Z,73.92
2022-10-06T14:27:02.272Z,73.64
2022-10-06T14:29:06.421Z,74.06
2022-10-06T14:31:14.273Z,74.29
2022-10-06T14:33:17.923Z,73.21
2022-10-06T14:35:21.070Z,73.72
2022-10-06T14:37:24.008Z,74.09
2022-10-06T14:39:28.514Z,75.83
2022-10-06T14:41:32.679Z,75.52
2022-10-06T14:43:35.716Z,75.01
2022-10-06T14:45:41.702Z,75.25
2022-10-06T14:47:45.047Z,76.92
2022-10-06T14:49:48.578Z,76.20
2022-10-06T14:51:55.677Z,76.86
2022-10-06T14:53:59.728Z,76.74
2022-10-06T14:56:07.810Z,78.12
2022-10-06T14:58:10.948Z,77.04
2022-10-06T15:00:14.785Z,77.35
2022-10-06T15:02:20.294Z,77.39
2022-10-06T15:04:26.494Z,77.61
2022-10-06T15:06:47.078Z,76.44
2022-10-06T15:08:51.690Z,76.05
2022-10-06T15:10:54.942Z,75.07
2022-10-06T15:12:59.763Z,75.80
2022-10-06T15:15:04.366Z,75.90
2022-10-06T15:17:07.439Z,76.01
2022-10-06T15:19:10.978Z,76.14
2022-10-06T15:21:13.969Z,76.03
2022-10-06T15:23:17.302Z,77.53
2022-10-06T15:25:34.174Z,77.52
2022-10-06T15:27:54.867Z,75.06
2022-10-06T15:29:59.275Z,76.31
2022-10-06T15:32:03.348Z,77.25
2022-10-06T15:34:08.064Z,77.44
2022-10-06T15:36:18.738Z,78.57
2022-10-06T15:38:21.738Z,78.95
2022-10-06T15:40:24.813Z,79.29
2022-10-06T15:42:27.821Z,77.77
2022-10-06T15:44:34.510Z,77.81
2022-10-06T15:46:40.633Z,77.09
2022-10-06T15:48:44.391Z,77.04
2022-10-06T15:50:47.347Z,78.91
2022-10-06T15:52:50.670Z,78.65
2022-10-06T15:54:53.634Z,78.97
2022-10-06T15:56:57.629Z,79.17
2022-10-06T15:59:00.957Z,79.69
2022-10-06T16:01:03.969Z,79.25
2022-10-06T16:03:24.751Z,80.16
2022-10-06T16:05:47.713Z,80.88
2022-10-06T16:07:50.674Z,81.03
2022-10-06T16:09:53.885Z,82.05
2022-10-06T16:11:57.914Z,82.54
2022-10-06T16:14:00.870Z,82.66
2022-10-06T16:16:03.969Z,83.13
2022-10-06T16:18:08.374Z,82.33
2022-10-06T16:20:11.523Z,81.82
2022-10-06T16:22:16.595Z,81.39
2022-10-06T16:24:20.163Z,81.24
2022-10-06T16:26:24.313Z,81.84
2022-10-06T16:28:27.283Z,82.10
2022-10-06T16:30:30.338Z,82.18
2022-10-06T16:32:33.322Z,82.91
2022-10-06T16:34:37.643Z,83.46
2022-10-06T16:36:41.399Z,82.50
2022-10-06T16:38:44.625Z,82.25
2022-10-06T16:40:54.916Z,82.64
2022-10-06T16:42:57.917Z,82.29
2022-10-06T16:45:00.944Z,82.42
2022-10-06T16:47:04.030Z,82.17
2022-10-06T16:49:08.563Z,82.05
2022-10-06T16:51:14.328Z,82.55
2022-10-06T16:53:18.502Z,83.30
2022-10-06T16:55:21.565Z,84.14
2022-10-06T16:57:24.851Z,84.56
2022-10-06T16:59:28.814Z,84.65
2022-10-06T17:01:34.388Z,83.94
2022-10-06T17:03:37.842Z,83.93
2022-10-06T17:05:40.868Z,84.59
2022-10-06T17:07:45.205Z,85.42
2022-10-06T17:10:15.336Z,85.23
2022-10-06T17:12:11.143Z,86.75
2022-10-06T17:14:14.715Z,86.59
2022-10-06T17:16:19.186Z,85.68
2022-10-06T17:18:22.290Z,86.90
2022-10-06T17:20:25.569Z,86.22
2022-10-06T17:22:28.651Z,87.11
2022-10-06T17:24:32.907Z,87.25
2022-10-06T17:26:37.175Z,88.24
2022-10-06T17:28:41.952Z,87.13
2022-10-06T17:30:52.579Z,87.48
2022-10-06T17:32:55.511Z,89.22
2022-10-06T17:34:58.548Z,88.05
2022-10-06T17:37:02.739Z,89.23
2022-10-06T17:39:06.716Z,88.22
2022-10-06T17:41:16.885Z,88.61
2022-10-06T17:43:20.389Z,88.48
2022-10-06T17:45:23.697Z,88.75
2022-10-06T17:47:27.880Z,89.06
2022-10-06T17:49:34.580Z,89.96
2022-10-06T17:51:40.505Z,90.74
2022-10-06T17:53:44.382Z,90.94
2022-10-06T17:55:47.626Z,89.69
2022-10-06T17:57:52.012Z,91.34
2022-10-06T17:59:58.943Z,90.97
2022-10-06T18:02:03.691Z,91.95
2022-10-06T18:04:07.951Z,91.89
2022-10-06T18:06:12.556Z,90.45
2022-10-06T18:08:16.997Z,89.98
2022-10-06T18:10:37.624Z,91.72
2022-10-06T18:12:40.835Z,91.84
2022-10-06T18:14:45.895Z,91.42
2022-10-06T18:16:55.906Z,90.43
2022-10-06T18:19:01.486Z,91.82
2022-10-06T18:21:05.082Z,91.76
2022-10-06T18:23:09.522Z,91.83
2022-10-06T18:25:16.710Z,91.00
2022-10-06T18:27:20.170Z,92.10
2022-10-06T18:29:24.847Z,91.81
2022-10-06T18:31:29.403Z,92.61
2022-10-06T18:36:14.700Z,92.32
2022-10-06T18:38:18.511Z,91.14
2022-10-06T18:40:21.644Z,93.39
2022-10-06T18:42:25.565Z,92.17
2022-10-06T18:44:42.463Z,94.00
2022-10-06T18:47:03.565Z,93.43
2022-10-06T18:49:10.485Z,92.79
2022-10-06T18:51:13.473Z,92.36
2022-10-06T18:53:16.491Z,93.83
2022-10-06T18:55:19.483Z,92.74
2022-10-06T18:57:27.181Z,92.41
2022-10-06T18:59:31.259Z,92.50
2022-10-06T19:01:34.450Z,91.53
2022-10-06T19:03:38.839Z,92.73
2022-10-06T19:05:52.048Z,92.21
2022-10-06T19:07:55.726Z,92.78
2022-10-06T19:09:59.083Z,91.75
2022-10-06T19:12:02.072Z,92.66
2022-10-06T19:14:05.144Z,93.22
2022-10-06T19:16:08.160Z,93.46
2022-10-06T19:18:11.255Z,92.52
2022-10-06T19:20:15.670Z,93.20
2022-10-06T19:22:21.540Z,93.45
2022-10-06T19:24:24.565Z,93.50
2022-10-06T19:26:27.549Z,94.35
2022-10-06T19:28:32.155Z,94.23
2022-10-06T19:30:35.267Z,93.88
2022-10-06T19:32:38.296Z,94.10
2022-10-06T19:34:41.279Z,93.71
2022-10-06T19:36:50.820Z,93.93
2022-10-06T19:38:55.468Z,94.57
2022-10-06T19:41:18.965Z,94.32
2022-10-06T19:43:21.767Z,94.22
2022-10-06T19:45:24.771Z,93.65
2022-10-06T19:47:28.050Z,93.91
2022-10-06T19:49:31.126Z,94.18
2022-10-06T19:51:35.165Z,94.03
2022-10-06T19:53:39.500Z,94.14
2022-10-06T19:55:43.521Z,93.72
2022-10-06T19:57:46.965Z,94.22
2022-10-06T19:59:51.242Z,94.50
2022-10-06T20:01:54.963Z,94.05
2022-10-06T20:03:58.363Z,94.28
2022-10-06T20:06:03.506Z,94.36
2022-10-06T20:08:06.509Z,95.04
2022-10-06T20:10:11.753Z,95.21
2022-10-06T20:12:15.048Z,95.29
2022-10-06T20:14:20.940Z,95.24
2022-10-06T20:16:24.439Z,95.48
2022-10-06T20:18:27.499Z,95.82
2022-10-06T20:20:30.464Z,96.07
2022-10-06T20:22:33.473Z,96.11
2022-10-06T20:24:36.517Z,95.90
2022-10-06T20:26:43.133Z,95.59
2022-10-06T20:28:46.810Z,96.29
2022-10-06T20:30:51.600Z,95.87
2022-10-06T20:32:54.618Z,96.28
2022-10-06T20:34:57.987Z,95.94
2022-10-06T20:37:02.514Z,95.85
2022-10-06T20:39:23.392Z,95.96
2022-10-06T20:41:27.182Z,96.20
2022-10-06T20:43:31.527Z,96.33
2022-10-06T20:45:34.540Z,95.85
2022-10-06T20:47:37.482Z,96.85
2022-10-06T20:49:42.033Z,96.50
2022-10-06T20:51:49.812Z,97.06
2022-10-06T20:53:53.664Z,96.52
2022-10-06T20:55:56.613Z,96.71
2022-10-06T20:57:59.561Z,97.05
2022-10-06T21:00:04.038Z,97.24
2022-10-06T21:02:08.069Z,97.35
2022-10-06T21:04:11.446Z,97.38
2022-10-06T21:06:14.987Z,97.53
2022-10-06T21:08:18.381Z,97.45
2022-10-06T21:10:22.905Z,97.44
2022-10-06T21:12:26.008Z,97.72
2022-10-06T21:14:29.968Z,97.56
2022-10-06T21:16:35.557Z,97.31
2022-10-06T21:18:38.481Z,97.87
2022-10-06T21:20:45.226Z,97.19
2022-10-06T21:22:48.420Z,97.93
2022-10-06T21:24:51.524Z,97.79
2022-10-06T21:26:54.438Z,97.34
2022-10-06T21:28:57.772Z,97.97
2022-10-06T21:31:02.815Z,97.61
2022-10-06T21:33:07.145Z,98.29
2022-10-06T21:35:10.463Z,97.99
2022-10-06T21:37:13.810Z,97.33
2022-10-06T21:39:16.998Z,97.66
2022-10-06T21:41:31.785Z,97.82
2022-10-06T21:43:34.751Z,96.96
2022-10-06T21:45:40.253Z,97.87
2022-10-06T21:47:43.315Z,97.92
2022-10-06T21:49:47.763Z,97.37
2022-10-06T21:51:51.838Z,96.40
2022-10-06T21:53:55.985Z,96.30
2022-10-06T21:55:58.881Z,95.98
2022-10-06T21:58:01.815Z,96.08
2022-10-06T22:00:06.000Z,95.74
2022-10-06T22:02:15.870Z,96.96
2022-10-06T22:04:19.449Z,96.63
2022-10-06T22:06:23.841Z,97.07
2022-10-06T22:08:26.768Z,96.83
2022-10-06T22:10:29.688Z,97.45
2022-10-06T22:12:32.607Z,97.08
2022-10-06T22:14:35.511Z,96.58
2022-10-06T22:16:38.766Z,96.74
2022-10-06T22:18:42.491Z,97.11
2022-10-06T22:20:45.428Z,96.77
2022-10-06T22:22:51.941Z,96.88
2022-10-06T22:24:54.883Z,96.94
2022-10-06T22:26:58.772Z,96.30
2022-10-06T22:29:01.963Z,96.93
2022-10-06T22:31:06.324Z,96.98
2022-10-06T22:33:09.247Z,96.96
2022-10-06T22:35:12.103Z,96.99
2022-10-06T22:37:15.210Z,97.07
2022-10-06T22:39:19.576Z,96.67
2022-10-06T22:41:22.918Z,97.02
2022-10-06T22:43:25.949Z,96.70
2022-10-06T22:45:28.812Z,96.91
2022-10-06T22:47:31.719Z,96.95
2022-10-06T22:49:35.255Z,96.65
2022-10-06T22:51:38.339Z,97.04
2022-10-06T22:53:41.265Z,96.82
2022-10-06T22:55:45.676Z,96.67
2022-10-06T22:57:48.623Z,96.80
2022-10-06T22:59:51.728Z,96.49
2022-10-06T23:01:54.689Z,96.51
2022-10-06T23:03:57.736Z,96.41
2022-10-06T23:06:01.662Z,96.18
2022-10-06T23:08:05.150Z,95.83
2022-10-06T23:10:08.929Z,97.04
2022-10-06T23:12:13.289Z,96.27
2022-10-06T23:14:16.294Z,95.96
2022-10-06T23:16:20.570Z,96.39
2022-10-06T23:18:23.545Z,96.10
2022-10-06T23:20:26.545Z,96.29
2022-10-06T23:22:29.535Z,95.71
2022-10-06T23:24:32.585Z,96.07
2022-10-06T23:26:35.532Z,95.90
2022-10-06T23:28:40.591Z,95.88
2022-10-06T23:30:43.601Z,95.52
2022-10-06T23:32:46.523Z,95.85
2022-10-06T23:34:49.436Z,95.77
2022-10-06T23:36:52.322Z,95.39
2022-10-06T23:38:55.733Z,96.47
2022-10-06T23:40:58.769Z,95.77
2022-10-06T23:43:01.622Z,96.12
2022-10-06T23:45:07.649Z,96.66
2022-10-06T23:47:10.549Z,96.50
2022-10-06T23:49:13.396Z,95.99
2022-10-06T23:51:16.645Z,96.73
2022-10-06T23:53:19.566Z,96.09
2022-10-06T23:55:22.496Z,96.67
2022-10-06T23:57:25.464Z,95.90
2022-10-06T23:59:29.422Z,96.03
